Flamboro Centre Airport

CA-0525 · 安大略, 加拿大

罗盘
风向 的 风向 230° Flamboro Centre Airport 15/33
风: 4 kt, 2 beaufort


4 kt
改变
0 ft 6.000 12.000 18.000 24.000 30.000
Cloud Cloud
FEW 17.000
Cloud Cloud
FEW 25.000
METAR CYHM 261000Z 23004KT 15SM FEW170 FEW250 00/M00 A2985 RMK AC1CI1 AC TR CI TR SLP119

METAR Flamboro Centre Airport - CA-0525

Flamboro Centre Airport是,加拿大中的小机场。 该机场位于纬度43,37175和经度-79,93263。 该机场有一条跑道: 15/33. 这个机场没有ICAO代码,我们使用CA-0525作为参考。 机场在Toronto FIR中。

该航空气象观测是针对John C. Munro Hamilton International Airport在2024年2月26日 05:00, 当地时间进行的。

机场观察

风向为230°,速度为4 kt。

可见度为15 mi。

有几云在17.000 ft的高度 和 几云在25.000 ft的高度。 没有观察到天花板。

温度为0 °C,阵风为-4 °C。 海平面上的气压为29,85 inHg (QNH)。

白天

今天,太阳从07:01升起,在18:04降落。 这适用于Flamboro Centre Airport,世界夏令时可能有所不同。 当地时间与世界标准时间之间的时差为-5 小时。 当前,没有夏令时有效。

公司介绍

我们没有关于这个机场的公司信息。

体会

到Vliegles.nl去找飞行课程,跳伞和其他飞行体验。 浏览页面,了解Flamboro Centre Airport附近所有可用的活动。 你也可以使用搜索功能来寻找你所在地附近的特定飞行课程、跳伞或其他飞行体验。

跑道

Id 标题 侧风 逆风 侧风 %
15/33 135°-315° 4 kt 100 %

逆风成分最大的方向会被突出显示,并用于横风计算。 这并不一定意味着这个方向在使用。

乌云

17.000 ft FEW 几云
25.000 ft FEW 几云

温度 & 天气

温度 0 °C
露点 0 °C
相对湿度 100%
风寒 -4 °C
Kp-index 1 (0-9)

评论

SLP119海平面压力为29,88 inHg (29,88 inHg)
AC1CI1 AC TR CI TR

白天

日出
07:00 (1:38)
中午
12:32
日落
18:04

小工具

你想在你的网站上有一个关于Flamboro Centre Airport的当前航空天气(METAR)的小部件吗?

显示HTML代码
?>